createdAt,value
2023-01-07T00:00:25.332Z,101329.47
2023-01-07T00:01:38.399Z,101332.00
2023-01-07T00:02:53.130Z,101327.41
2023-01-07T00:04:07.003Z,101322.09
2023-01-07T00:05:19.545Z,101326.47
2023-01-07T00:06:28.363Z,101329.00
2023-01-07T00:07:40.860Z,101327.28
2023-01-07T00:08:54.363Z,101323.81
2023-01-07T00:10:07.432Z,101322.81
2023-01-07T00:11:21.494Z,101318.34
2023-01-07T00:12:33.107Z,101316.66
2023-01-07T00:13:46.251Z,101314.75
2023-01-07T00:15:00.111Z,101313.88
2023-01-07T00:16:24.183Z,101314.75
2023-01-07T00:17:36.919Z,101313.88
2023-01-07T00:18:50.194Z,101307.63
2023-01-07T00:19:56.539Z,101319.09
2023-01-07T00:21:10.515Z,101317.25
2023-01-07T00:22:22.981Z,101319.81
2023-01-07T00:23:36.324Z,101323.34
2023-01-07T00:24:48.859Z,101316.06
2023-01-07T00:26:02.176Z,101314.16
2023-01-07T00:27:14.660Z,101323.81
2023-01-07T00:28:26.714Z,101321.06
2023-01-07T00:29:39.242Z,101305.94
2023-01-07T00:30:52.161Z,101306.78
2023-01-07T00:32:04.941Z,101306.66
2023-01-07T00:33:17.697Z,101304.00
2023-01-07T00:34:31.120Z,101308.47
2023-01-07T00:35:44.997Z,101304.00
2023-01-07T00:37:17.569Z,101302.31
2023-01-07T00:38:25.202Z,101303.28
2023-01-07T00:39:37.690Z,101307.84
2023-01-07T00:40:49.221Z,101302.53
2023-01-07T00:42:15.343Z,101302.53
2023-01-07T00:43:28.639Z,101300.88
2023-01-07T00:44:37.736Z,101307.00
2023-01-07T00:46:01.744Z,101299.88
2023-01-07T00:47:24.221Z,101298.22
2023-01-07T00:48:46.715Z,101298.22
2023-01-07T00:49:53.525Z,101298.06
2023-01-07T00:51:06.277Z,101300.63
2023-01-07T00:52:17.804Z,101293.63
2023-01-07T00:53:30.403Z,101287.34
2023-01-07T00:54:42.896Z,101288.06
2023-01-07T00:55:54.454Z,101292.41
2023-01-07T00:57:06.965Z,101290.59
2023-01-07T00:58:22.281Z,101288.91
2023-01-07T00:59:33.800Z,101280.78
2023-01-07T01:00:46.375Z,101287.09
2023-01-07T01:01:59.378Z,101289.75
2023-01-07T01:03:12.368Z,101288.06
2023-01-07T01:04:24.877Z,101287.19
2023-01-07T01:05:36.397Z,101279.22
2023-01-07T01:06:48.876Z,101284.44
2023-01-07T01:08:00.550Z,101282.75
2023-01-07T01:09:13.147Z,101272.22
2023-01-07T01:10:25.636Z,101275.72
2023-01-07T01:11:37.152Z,101273.06
2023-01-07T01:12:50.005Z,101275.72
2023-01-07T01:14:02.550Z,101275.72
2023-01-07T01:15:15.420Z,101273.06
2023-01-07T01:16:27.988Z,101265.22
2023-01-07T01:17:41.184Z,101269.53
2023-01-07T01:18:53.694Z,101270.28
2023-01-07T01:20:08.162Z,101267.63
2023-01-07T01:21:20.719Z,101268.50
2023-01-07T01:22:33.257Z,101268.50
2023-01-07T01:23:45.088Z,101261.47
2023-01-07T01:24:57.610Z,101264.84
2023-01-07T01:26:12.433Z,101266.69
2023-01-07T01:27:19.669Z,101264.84
2023-01-07T01:28:32.493Z,101262.19
2023-01-07T01:29:44.070Z,101266.53
2023-01-07T01:30:56.664Z,101264.84
2023-01-07T01:32:09.324Z,101259.53
2023-01-07T01:33:20.649Z,101270.91
2023-01-07T01:34:33.120Z,101261.22
2023-01-07T01:35:45.585Z,101259.53
2023-01-07T01:36:57.110Z,101258.56
2023-01-07T01:38:09.646Z,101261.34
2023-01-07T01:39:22.033Z,101254.19
2023-01-07T01:40:34.531Z,101249.88
2023-01-07T01:41:47.344Z,101257.84
2023-01-07T01:42:59.872Z,101249.03
2023-01-07T01:44:34.503Z,101253.50
2023-01-07T01:45:47.149Z,101254.34
2023-01-07T01:46:59.036Z,101255.28
2023-01-07T01:48:11.219Z,101259.75
2023-01-07T01:49:27.821Z,101245.50
2023-01-07T01:50:44.877Z,101254.44
2023-01-07T01:52:00.501Z,101251.78
2023-01-07T01:53:17.524Z,101252.78
2023-01-07T01:54:29.379Z,101263.41
2023-01-07T01:55:46.475Z,101258.09
2023-01-07T01:57:01.406Z,101251.78
2023-01-07T01:58:19.223Z,101248.28
2023-01-07T01:59:35.221Z,101247.47
2023-01-07T02:00:47.866Z,101247.47
2023-01-07T02:01:59.640Z,101250.13
2023-01-07T02:03:16.179Z,101248.28
2023-01-07T02:04:30.609Z,101250.13
2023-01-07T02:05:43.913Z,101244.78
2023-01-07T02:07:01.652Z,101241.28
2023-01-07T02:08:15.029Z,101243.94
2023-01-07T02:09:26.689Z,101240.28
2023-01-07T02:10:40.227Z,101248.28
2023-01-07T02:12:01.669Z,101245.63
2023-01-07T02:13:26.501Z,101250.84
2023-01-07T02:14:58.061Z,101246.47
2023-01-07T02:16:19.629Z,101249.97
2023-01-07T02:17:43.975Z,101241.16
2023-01-07T02:19:10.072Z,101242.97
2023-01-07T02:20:33.879Z,101237.53
2023-01-07T02:21:55.466Z,101236.69
2023-01-07T02:23:48.262Z,101234.88
2023-01-07T02:25:27.413Z,101239.34
2023-01-07T02:27:12.577Z,101240.19
2023-01-07T02:29:07.245Z,101229.66
2023-01-07T02:31:05.880Z,101235.97
2023-01-07T02:32:27.443Z,101236.81
2023-01-07T02:33:52.123Z,101240.44
2023-01-07T02:35:19.167Z,101234.25
2023-01-07T02:36:42.529Z,101231.75
2023-01-07T02:38:02.671Z,101237.06
2023-01-07T02:39:32.412Z,101230.03
2023-01-07T02:40:51.284Z,101233.66
2023-01-07T02:42:14.310Z,101228.22
2023-01-07T02:43:35.876Z,101232.69
2023-01-07T02:44:56.809Z,101227.38
2023-01-07T02:46:16.667Z,101222.16
2023-01-07T02:47:35.150Z,101229.19
2023-01-07T02:48:47.094Z,101229.28
2023-01-07T02:50:00.839Z,101228.34
2023-01-07T02:51:12.824Z,101230.28
2023-01-07T02:52:26.959Z,101224.97
2023-01-07T02:53:40.695Z,101223.16
2023-01-07T02:54:58.693Z,101225.69
2023-01-07T02:56:24.862Z,101221.31
2023-01-07T02:58:28.785Z,101229.44
2023-01-07T02:59:58.350Z,101217.94
2023-01-07T03:01:35.717Z,101218.91
2023-01-07T03:03:08.011Z,101217.22
2023-01-07T03:04:34.648Z,101218.19
2023-01-07T03:05:57.371Z,101217.34
2023-01-07T03:07:23.597Z,101220.94
2023-01-07T03:08:48.942Z,101215.63
2023-01-07T03:10:06.892Z,101215.78
2023-01-07T03:11:19.996Z,101210.56
2023-01-07T03:12:37.680Z,101212.25
2023-01-07T03:13:58.683Z,101209.59
2023-01-07T03:15:18.438Z,101215.06
2023-01-07T03:16:34.925Z,101206.22
2023-01-07T03:17:58.070Z,101200.16
2023-01-07T03:19:13.116Z,101202.97
2023-01-07T03:20:26.736Z,101201.25
2023-01-07T03:21:40.133Z,101195.09
2023-01-07T03:22:54.497Z,101197.88
2023-01-07T03:24:07.849Z,101194.47
2023-01-07T03:25:24.000Z,101199.09
2023-01-07T03:26:31.600Z,101198.38
2023-01-07T03:27:47.520Z,101202.84
2023-01-07T03:29:02.502Z,101200.53
2023-01-07T03:30:17.496Z,101195.44
2023-01-07T03:31:31.577Z,101192.06
2023-01-07T03:32:48.842Z,101201.22
2023-01-07T03:34:07.274Z,101194.44
2023-01-07T03:35:20.638Z,101196.41
2023-01-07T03:36:37.305Z,101196.50
2023-01-07T03:37:51.541Z,101187.06
2023-01-07T03:39:07.099Z,101189.00
2023-01-07T03:40:21.345Z,101183.06
2023-01-07T03:41:51.691Z,101192.00
2023-01-07T03:43:04.193Z,101178.94
2023-01-07T03:44:16.719Z,101183.53
2023-01-07T03:45:29.241Z,101183.66
2023-01-07T03:46:42.549Z,101189.09
2023-01-07T03:47:57.679Z,101187.38
2023-01-07T03:49:10.562Z,101179.66
2023-01-07T03:50:23.681Z,101179.66
2023-01-07T03:51:35.218Z,101189.56
2023-01-07T03:52:49.489Z,101181.81
2023-01-07T03:54:01.093Z,101182.78
2023-01-07T03:55:13.561Z,101168.78
2023-01-07T03:56:26.017Z,101175.06
2023-01-07T03:57:37.611Z,101171.53
2023-01-07T03:58:50.166Z,101179.63
2023-01-07T04:00:02.159Z,101170.91
2023-01-07T04:01:22.754Z,101179.72
2023-01-07T04:02:34.394Z,101169.19
2023-01-07T04:03:46.880Z,101172.81
2023-01-07T04:04:59.744Z,101164.88
2023-01-07T04:06:12.408Z,101164.97
2023-01-07T04:07:24.883Z,101155.19
2023-01-07T04:08:31.670Z,101158.81
2023-01-07T04:09:44.136Z,101162.44
2023-01-07T04:10:55.714Z,101150.13
2023-01-07T04:12:08.588Z,101158.19
2023-01-07T04:13:20.133Z,101160.97
2023-01-07T04:14:32.655Z,101155.66
2023-01-07T04:15:44.638Z,101155.75
2023-01-07T04:16:53.324Z,101158.41
2023-01-07T04:18:05.054Z,101152.28
2023-01-07T04:19:19.083Z,101150.59
2023-01-07T04:20:32.173Z,101149.63
2023-01-07T04:21:44.844Z,101151.53
2023-01-07T04:22:56.378Z,101147.19
2023-01-07T04:24:09.410Z,101143.56
2023-01-07T04:25:21.920Z,101148.16
2023-01-07T04:26:29.121Z,101145.50
2023-01-07T04:27:41.880Z,101150.81
2023-01-07T04:28:53.429Z,101144.66
2023-01-07T04:30:07.052Z,101142.09
2023-01-07T04:31:18.675Z,101139.59
2023-01-07T04:32:31.262Z,101137.78
2023-01-07T04:33:43.957Z,101136.09
2023-01-07T04:34:56.462Z,101138.72
2023-01-07T04:36:13.083Z,101127.41
2023-01-07T04:37:25.676Z,101137.03
2023-01-07T04:38:37.296Z,101138.72
2023-01-07T04:39:49.774Z,101123.91
2023-01-07T04:41:01.318Z,101123.03
2023-01-07T04:42:13.804Z,101128.34
2023-01-07T04:43:25.385Z,101119.53
2023-01-07T04:44:37.916Z,101110.72
2023-01-07T04:45:49.462Z,101113.38
2023-01-07T04:47:01.958Z,101107.34
2023-01-07T04:48:13.600Z,101106.59
2023-01-07T04:49:26.118Z,101107.59
2023-01-07T04:50:37.687Z,101104.06
2023-01-07T04:51:51.609Z,101103.22
2023-01-07T04:53:03.156Z,101094.56
2023-01-07T04:54:15.870Z,101096.34
2023-01-07T04:55:27.421Z,101099.09
2023-01-07T04:56:39.895Z,101100.81
2023-01-07T04:57:51.537Z,101091.16
2023-01-07T04:59:04.065Z,101087.66
2023-01-07T05:00:17.000Z,101095.50
2023-01-07T05:01:30.940Z,101083.19
2023-01-07T05:02:43.611Z,101090.19
2023-01-07T05:03:56.096Z,101085.84
2023-01-07T05:05:09.852Z,101084.88
2023-01-07T05:06:22.361Z,101087.66
2023-01-07T05:07:35.384Z,101085.13
2023-01-07T05:08:47.954Z,101086.94
2023-01-07T05:09:59.484Z,101085.22
2023-01-07T05:11:12.011Z,101079.91
2023-01-07T05:12:23.573Z,101086.31
2023-01-07T05:13:36.173Z,101081.00
2023-01-07T05:14:47.728Z,101081.13
2023-01-07T05:16:00.206Z,101079.28
2023-01-07T05:17:11.879Z,101073.28
2023-01-07T05:18:24.392Z,101071.56
2023-01-07T05:19:35.969Z,101073.50
2023-01-07T05:20:48.495Z,101072.56
2023-01-07T05:22:01.013Z,101074.47
2023-01-07T05:23:15.054Z,101067.34
2023-01-07T05:24:27.573Z,101064.81
2023-01-07T05:25:39.135Z,101062.28
2023-01-07T05:26:51.695Z,101066.72
2023-01-07T05:28:03.474Z,101066.00
2023-01-07T05:29:16.061Z,101066.97
2023-01-07T05:30:28.952Z,101066.97
2023-01-07T05:31:41.055Z,101063.34
2023-01-07T05:32:53.622Z,101070.59
2023-01-07T05:34:05.165Z,101065.28
2023-01-07T05:35:17.683Z,101075.16
2023-01-07T05:36:30.216Z,101070.81
2023-01-07T05:37:41.873Z,101070.81
2023-01-07T05:38:55.844Z,101073.59
2023-01-07T05:40:08.861Z,101070.06
2023-01-07T05:41:21.395Z,101067.44
2023-01-07T05:42:32.975Z,101067.44
2023-01-07T05:43:45.517Z,101056.94
2023-01-07T05:44:57.035Z,101059.59
2023-01-07T05:46:08.931Z,101064.91
2023-01-07T05:47:20.639Z,101054.41
2023-01-07T05:48:33.207Z,101057.91
2023-01-07T05:49:44.814Z,101063.19
2023-01-07T05:50:57.439Z,101060.66
2023-01-07T05:52:09.001Z,101053.53
2023-01-07T05:53:21.588Z,101056.19
2023-01-07T05:54:34.548Z,101058.97
2023-01-07T05:55:47.103Z,101054.50
2023-01-07T05:56:59.574Z,101063.44
2023-01-07T05:58:11.418Z,101058.97
2023-01-07T05:59:22.947Z,101065.09
2023-01-07T06:00:36.416Z,101064.28
2023-01-07T06:01:48.914Z,101058.97
2023-01-07T06:03:00.544Z,101064.28
2023-01-07T06:04:13.104Z,101059.81
2023-01-07T06:05:24.717Z,101057.91
2023-01-07T06:06:37.383Z,101053.44
2023-01-07T06:07:50.865Z,101054.28
2023-01-07T06:09:03.477Z,101053.22
2023-01-07T06:10:16.675Z,101050.44
2023-01-07T06:11:29.218Z,101044.88
2023-01-07T06:12:41.898Z,101043.84
2023-01-07T06:13:54.407Z,101041.91
2023-01-07T06:15:08.231Z,101046.97
2023-01-07T06:16:19.768Z,101045.88
2023-01-07T06:17:32.244Z,101050.13
2023-01-07T06:18:44.756Z,101046.28
2023-01-07T06:19:56.307Z,101051.34
2023-01-07T06:21:08.818Z,101047.63
2023-01-07T06:22:20.369Z,101044.75
2023-01-07T06:23:32.911Z,101036.66
2023-01-07T06:24:45.389Z,101037.25
2023-01-07T06:25:59.297Z,101039.69
2023-01-07T06:27:11.906Z,101048.25
2023-01-07T06:28:23.515Z,101041.84
2023-01-07T06:29:36.456Z,101038.25
2023-01-07T06:30:48.458Z,101039.81
2023-01-07T06:32:01.002Z,101036.06
2023-01-07T06:33:13.939Z,101043.94
2023-01-07T06:34:26.469Z,101033.06
2023-01-07T06:35:38.003Z,101040.09
2023-01-07T06:36:50.567Z,101027.53
2023-01-07T06:38:02.147Z,101038.06
2023-01-07T06:39:14.953Z,101022.84
2023-01-07T06:40:26.899Z,101036.84
2023-01-07T06:41:40.711Z,101026.13
2023-01-07T06:42:53.330Z,101025.16
2023-01-07T06:44:06.025Z,101028.53
2023-01-07T06:45:17.688Z,101029.25
2023-01-07T06:46:30.351Z,101024.78
2023-01-07T06:47:42.874Z,101024.69
2023-01-07T06:48:56.280Z,101021.06
2023-01-07T06:50:08.721Z,101020.06
2023-01-07T06:51:21.252Z,101021.06
2023-01-07T06:52:33.971Z,101016.47
2023-01-07T06:53:46.463Z,101016.47
2023-01-07T06:54:57.993Z,101012.84
2023-01-07T06:56:10.561Z,101016.31
2023-01-07T06:57:23.503Z,101018.88
2023-01-07T06:58:36.090Z,101006.56
2023-01-07T06:59:48.675Z,101009.09
2023-01-07T07:01:03.932Z,101015.28
2023-01-07T07:02:20.100Z,101008.97
2023-01-07T07:03:31.915Z,101007.16
2023-01-07T07:04:44.409Z,101003.56
2023-01-07T07:05:55.927Z,101008.88
2023-01-07T07:07:08.469Z,101005.25
2023-01-07T07:08:20.001Z,101006.06
2023-01-07T07:09:32.517Z,101010.56
2023-01-07T07:10:44.986Z,101009.72
2023-01-07T07:11:57.797Z,101004.41
2023-01-07T07:13:11.952Z,101015.88
2023-01-07T07:14:24.426Z,101004.41
2023-01-07T07:15:35.945Z,101001.75
2023-01-07T07:16:49.437Z,100999.81
2023-01-07T07:18:01.940Z,100996.44
2023-01-07T07:19:14.450Z,100995.34
2023-01-07T07:20:26.023Z,100991.84
2023-01-07T07:21:38.504Z,100992.69
2023-01-07T07:22:50.055Z,100998.84
2023-01-07T07:24:02.590Z,100992.69
2023-01-07T07:25:14.335Z,100993.53
2023-01-07T07:26:26.886Z,101002.22
2023-01-07T07:27:38.424Z,100996.91
2023-01-07T07:28:52.259Z,100993.38
2023-01-07T07:30:04.942Z,100996.91
2023-01-07T07:31:17.468Z,100998.69
2023-01-07T07:32:29.090Z,100998.69
2023-01-07T07:33:41.580Z,100999.56
2023-01-07T07:34:54.062Z,100989.78
2023-01-07T07:36:07.181Z,100993.28
2023-01-07T07:37:19.710Z,100993.28
2023-01-07T07:38:32.200Z,100983.63
2023-01-07T07:39:43.720Z,100992.44
2023-01-07T07:40:56.730Z,100986.16
2023-01-07T07:42:08.311Z,100987.13
2023-01-07T07:43:20.879Z,100987.00
2023-01-07T07:44:33.795Z,100981.56
2023-01-07T07:45:46.344Z,100980.72
2023-01-07T07:46:57.928Z,100973.72
2023-01-07T07:48:13.201Z,100978.91
2023-01-07T07:49:25.719Z,100978.06
2023-01-07T07:50:37.300Z,100974.44
2023-01-07T07:51:49.812Z,100973.50
2023-01-07T07:53:02.565Z,100971.78
2023-01-07T07:54:14.069Z,100977.09
2023-01-07T07:55:26.820Z,100977.09
2023-01-07T07:56:38.551Z,100969.97
2023-01-07T07:57:53.625Z,100972.63
2023-01-07T07:59:04.587Z,100969.97
2023-01-07T08:00:18.685Z,100972.63
2023-01-07T08:01:31.321Z,100968.16
2023-01-07T08:02:42.960Z,100974.34
2023-01-07T08:03:55.497Z,100963.72
2023-01-07T08:05:08.184Z,100965.38
2023-01-07T08:06:20.691Z,100966.22
2023-01-07T08:07:33.593Z,100965.28
2023-01-07T08:08:44.677Z,100964.41
2023-01-07T08:09:55.164Z,100958.97
2023-01-07T08:11:07.009Z,100959.81
2023-01-07T08:12:19.516Z,100967.94
2023-01-07T08:13:32.363Z,100959.97
2023-01-07T08:14:44.006Z,100959.81
2023-01-07T08:15:58.333Z,100959.81
2023-01-07T08:17:10.929Z,100960.66
2023-01-07T08:18:23.602Z,100961.50
2023-01-07T08:19:36.116Z,100964.16
2023-01-07T08:20:48.823Z,100960.66
2023-01-07T08:22:01.382Z,100957.06
2023-01-07T08:23:12.916Z,100959.72
2023-01-07T08:24:20.829Z,100963.06
2023-01-07T08:25:34.815Z,100957.75
2023-01-07T08:26:47.391Z,100967.44
2023-01-07T08:28:01.142Z,100963.81
2023-01-07T08:29:09.240Z,100960.31
2023-01-07T08:30:21.116Z,100961.16
2023-01-07T08:31:34.962Z,100961.16
2023-01-07T08:32:46.516Z,100954.84
2023-01-07T08:33:59.116Z,100965.47
2023-01-07T08:35:11.715Z,100961.88
2023-01-07T08:36:24.229Z,100958.34
2023-01-07T08:37:36.723Z,100960.16
2023-01-07T08:38:50.954Z,100954.84
2023-01-07T08:40:05.916Z,100950.38
2023-01-07T08:41:17.635Z,100952.09
2023-01-07T08:42:30.813Z,100951.25
2023-01-07T08:43:44.828Z,100948.44
2023-01-07T08:44:57.372Z,100943.97
2023-01-07T08:46:09.854Z,100936.00
2023-01-07T08:47:25.913Z,100943.00
2023-01-07T08:48:38.919Z,100935.03
2023-01-07T08:49:51.417Z,100933.09
2023-01-07T08:51:04.021Z,100932.28
2023-01-07T08:52:16.520Z,100927.78
2023-01-07T08:53:29.040Z,100932.13
2023-01-07T08:54:40.600Z,100928.63
2023-01-07T08:55:53.177Z,100931.19
2023-01-07T08:57:05.701Z,100933.84
2023-01-07T08:58:18.254Z,100933.84
2023-01-07T08:59:30.774Z,100933.84
2023-01-07T09:00:42.347Z,100941.81
2023-01-07T09:01:55.023Z,100936.50
2023-01-07T09:03:09.312Z,100936.34
2023-01-07T09:04:21.829Z,100934.69
2023-01-07T09:05:35.338Z,100932.84
2023-01-07T09:06:48.243Z,100931.19
2023-01-07T09:08:02.712Z,100927.53
2023-01-07T09:09:16.526Z,100929.22
2023-01-07T09:10:29.795Z,100923.06
2023-01-07T09:11:42.381Z,100923.06
2023-01-07T09:12:54.914Z,100925.59
2023-01-07T09:14:07.491Z,100924.66
2023-01-07T09:15:19.308Z,100918.34
2023-01-07T09:16:31.894Z,100918.22
2023-01-07T09:17:43.532Z,100911.94
2023-01-07T09:18:57.392Z,100918.09
2023-01-07T09:20:10.182Z,100913.63
2023-01-07T09:21:22.763Z,100918.69
2023-01-07T09:22:37.451Z,100918.56
2023-01-07T09:23:50.048Z,100913.13
2023-01-07T09:25:01.739Z,100911.19
2023-01-07T09:26:14.249Z,100910.94
2023-01-07T09:27:26.697Z,100911.66
2023-01-07T09:28:39.233Z,100905.38
2023-01-07T09:29:46.290Z,100912.22
2023-01-07T09:30:59.933Z,100903.16
2023-01-07T09:32:11.537Z,100909.22
2023-01-07T09:33:24.075Z,100910.75
2023-01-07T09:34:38.272Z,100907.13
2023-01-07T09:35:44.506Z,100906.16
2023-01-07T09:36:57.066Z,100906.88
2023-01-07T09:38:09.676Z,100906.88
2023-01-07T09:39:14.510Z,100905.88
2023-01-07T09:40:24.183Z,100903.13
2023-01-07T09:41:44.210Z,100901.31
2023-01-07T09:43:04.822Z,100897.91
2023-01-07T09:44:24.996Z,100891.88
2023-01-07T09:45:40.578Z,100898.31
2023-01-07T09:46:56.054Z,100893.09
2023-01-07T09:48:18.971Z,100895.06
2023-01-07T09:49:45.657Z,100887.34
2023-01-07T09:51:13.376Z,100891.13
2023-01-07T09:52:37.656Z,100888.69
2023-01-07T09:54:02.712Z,100893.28
2023-01-07T09:55:13.513Z,100886.41
2023-01-07T09:56:21.642Z,100881.22
2023-01-07T09:57:23.213Z,100889.09
2023-01-07T09:58:25.763Z,100889.09
2023-01-07T09:59:28.428Z,100887.38
2023-01-07T10:00:32.550Z,100877.72
2023-01-07T10:01:42.746Z,100882.06
2023-01-07T10:03:00.528Z,100882.91
2023-01-07T10:04:23.478Z,100875.91
2023-01-07T10:06:00.520Z,100871.44
2023-01-07T10:07:27.631Z,100880.38
2023-01-07T10:09:04.167Z,100877.72
2023-01-07T10:10:32.542Z,100868.94
2023-01-07T10:12:02.934Z,100868.06
2023-01-07T10:13:42.667Z,100856.44
2023-01-07T10:15:20.309Z,100857.28
2023-01-07T10:16:49.405Z,100852.84
2023-01-07T10:18:25.027Z,100850.19
2023-01-07T10:19:51.699Z,100850.19
2023-01-07T10:21:18.877Z,100851.03
2023-01-07T10:22:49.722Z,100839.53
2023-01-07T10:24:17.144Z,100841.25
2023-01-07T10:25:43.806Z,100836.78
2023-01-07T10:26:49.275Z,100833.97
2023-01-07T10:27:54.307Z,100842.78
2023-01-07T10:29:00.849Z,100834.81
2023-01-07T10:30:05.320Z,100834.69
2023-01-07T10:31:16.913Z,100835.53
2023-01-07T10:32:20.964Z,100830.19
2023-01-07T10:33:28.365Z,100830.09
2023-01-07T10:34:35.725Z,100821.16
2023-01-07T10:36:04.931Z,100823.56
2023-01-07T10:37:31.358Z,100820.88
2023-01-07T10:38:42.865Z,100824.25
2023-01-07T10:39:57.672Z,100817.00
2023-01-07T10:41:07.730Z,100810.69
2023-01-07T10:42:16.703Z,100809.59
2023-01-07T10:43:35.476Z,100809.47
2023-01-07T10:45:02.618Z,100798.84
2023-01-07T10:46:25.737Z,100792.56
2023-01-07T10:47:39.622Z,100807.50
2023-01-07T10:49:11.621Z,100792.41
2023-01-07T10:50:31.340Z,100794.09
2023-01-07T10:51:56.314Z,100778.28
2023-01-07T10:53:06.361Z,100786.25
2023-01-07T10:54:23.189Z,100775.59
2023-01-07T10:55:42.489Z,100773.69
2023-01-07T10:56:47.981Z,100774.38
2023-01-07T10:57:50.703Z,100763.47
2023-01-07T10:58:52.485Z,100764.22
2023-01-07T10:59:57.935Z,100756.81
2023-01-07T11:00:59.890Z,100757.50
2023-01-07T11:02:03.265Z,100756.41
2023-01-07T11:03:05.503Z,100749.00
2023-01-07T11:04:14.201Z,100753.19
2023-01-07T11:05:18.275Z,100752.81
2023-01-07T11:06:27.505Z,100748.34
2023-01-07T11:07:34.913Z,100748.06
2023-01-07T11:08:42.142Z,100749.75
2023-01-07T11:09:46.651Z,100744.16
2023-01-07T11:10:49.222Z,100745.84
2023-01-07T11:11:52.700Z,100743.06
2023-01-07T11:12:59.093Z,100740.38
2023-01-07T11:14:04.338Z,100741.09
2023-01-07T11:15:15.359Z,100731.97
2023-01-07T11:16:22.256Z,100732.72
2023-01-07T11:17:32.208Z,100736.06
2023-01-07T11:18:39.678Z,100728.84
2023-01-07T11:19:44.196Z,100726.88
2023-01-07T11:20:51.050Z,100725.91
2023-01-07T11:21:55.492Z,100714.28
2023-01-07T11:22:59.679Z,100714.28
2023-01-07T11:24:32.471Z,100715.97
2023-01-07T11:25:42.241Z,100711.47
2023-01-07T11:26:46.443Z,100699.88
2023-01-07T11:27:49.018Z,100704.19
2023-01-07T11:28:56.169Z,100705.72
2023-01-07T11:30:01.821Z,100693.28
2023-01-07T11:31:04.878Z,100702.81
2023-01-07T11:32:19.583Z,100693.84
2023-01-07T11:34:03.776Z,100681.25
2023-01-07T11:34:56.179Z,100688.25
2023-01-07T11:35:58.974Z,100680.25
2023-01-07T11:37:01.692Z,100674.81
2023-01-07T11:38:28.424Z,100676.50
2023-01-07T11:39:36.831Z,100670.06
2023-01-07T11:40:38.809Z,100652.13
2023-01-07T11:41:53.166Z,100673.97
2023-01-07T11:42:56.695Z,100668.53
2023-01-07T11:44:00.690Z,100665.88
2023-01-07T11:45:14.379Z,100658.00
2023-01-07T11:46:22.458Z,100662.47
2023-01-07T11:47:26.004Z,100672.44
2023-01-07T11:48:31.810Z,100655.63
2023-01-07T11:49:44.713Z,100662.63
2023-01-07T11:50:57.933Z,100653.53
2023-01-07T11:52:00.797Z,100649.91
2023-01-07T11:53:11.193Z,100654.94
2023-01-07T11:54:21.805Z,100649.63
2023-01-07T11:55:25.027Z,100645.94
2023-01-07T11:56:29.527Z,100655.50
2023-01-07T11:57:32.725Z,100656.31
2023-01-07T11:58:47.246Z,100640.34
2023-01-07T12:00:12.318Z,100639.53
2023-01-07T12:01:20.073Z,100633.19
2023-01-07T12:02:32.623Z,100633.91
2023-01-07T12:03:35.430Z,100634.75
2023-01-07T12:04:41.036Z,100631.09
2023-01-07T12:05:45.986Z,100631.09
2023-01-07T12:06:54.911Z,100625.78
2023-01-07T12:08:17.163Z,100627.47
2023-01-07T12:09:36.906Z,100629.16
2023-01-07T12:10:41.119Z,100614.84
2023-01-07T12:11:52.825Z,100620.31
2023-01-07T12:13:07.075Z,100613.47
2023-01-07T12:14:24.673Z,100610.09
2023-01-07T12:15:34.761Z,100601.69
2023-01-07T12:19:20.579Z,100594.69
2023-01-07T12:20:40.030Z,100592.31
2023-01-07T12:21:52.561Z,100587.09
2023-01-07T12:23:03.993Z,100590.78
2023-01-07T12:24:27.124Z,100590.22
2023-01-07T12:25:45.586Z,100592.31
2023-01-07T12:26:55.727Z,100587.09
2023-01-07T12:28:10.820Z,100589.94
2023-01-07T12:29:22.196Z,100584.59
2023-01-07T12:30:43.940Z,100580.25
2023-01-07T12:32:05.272Z,100572.41
2023-01-07T12:33:20.309Z,100590.22
2023-01-07T12:34:34.871Z,100582.34
2023-01-07T12:35:42.857Z,100578.72
2023-01-07T12:36:55.740Z,100574.25
2023-01-07T12:38:06.248Z,100567.91
2023-01-07T12:39:19.610Z,100571.41
2023-01-07T12:40:32.162Z,100568.63
2023-01-07T12:41:40.005Z,100563.31
2023-01-07T12:42:50.368Z,100560.66
2023-01-07T12:44:03.453Z,100563.31
2023-01-07T12:45:13.989Z,100565.81
2023-01-07T12:46:24.558Z,100566.66
2023-01-07T12:47:41.087Z,100563.03
2023-01-07T12:49:00.466Z,100559.25
2023-01-07T12:50:12.318Z,100553.78
2023-01-07T12:51:20.709Z,100561.63
2023-01-07T12:52:32.477Z,100546.50
2023-01-07T12:53:39.647Z,100541.19
2023-01-07T12:54:52.369Z,100534.03
2023-01-07T12:56:02.512Z,100533.19
2023-01-07T12:57:14.594Z,100528.84
2023-01-07T12:58:23.741Z,100524.53
2023-01-07T12:59:45.960Z,100523.81
2023-01-07T13:00:56.396Z,100518.47
2023-01-07T13:02:11.402Z,100527.44
2023-01-07T13:03:25.701Z,100523.13
2023-01-07T13:04:40.280Z,100521.31
2023-01-07T13:05:49.418Z,100524.09
2023-01-07T13:06:55.282Z,100518.75
2023-01-07T13:08:04.588Z,100511.47
2023-01-07T13:09:16.240Z,100516.53
2023-01-07T13:10:25.284Z,100519.59
2023-01-07T13:11:51.284Z,100516.66
2023-01-07T13:12:59.544Z,100508.53
2023-01-07T13:14:03.209Z,100508.53
2023-01-07T13:15:13.355Z,100507.69
2023-01-07T13:16:15.922Z,100502.50
2023-01-07T13:17:29.486Z,100503.50
2023-01-07T13:18:32.184Z,100499.16
2023-01-07T13:19:33.708Z,100501.94
2023-01-07T13:20:51.437Z,100504.75
2023-01-07T13:22:01.182Z,100499.56
2023-01-07T13:23:05.888Z,100503.22
2023-01-07T13:24:54.575Z,100500.56
2023-01-07T13:26:06.674Z,100496.50
2023-01-07T13:27:21.753Z,100485.03
2023-01-07T13:28:53.245Z,100489.78
2023-01-07T13:30:13.642Z,100495.78
2023-01-07T13:31:52.419Z,100488.81
2023-01-07T13:33:09.231Z,100488.81
2023-01-07T13:34:24.893Z,100478.16
2023-01-07T13:35:49.540Z,100486.84
2023-01-07T13:37:10.489Z,100483.19
2023-01-07T13:38:31.955Z,100482.34
2023-01-07T13:39:48.554Z,100484.84
2023-01-07T13:41:01.169Z,100481.22
2023-01-07T13:42:18.318Z,100479.41
2023-01-07T13:43:43.145Z,100475.91
2023-01-07T13:45:01.588Z,100474.09
2023-01-07T13:46:09.616Z,100470.59
2023-01-07T13:47:14.593Z,100474.94
2023-01-07T13:48:21.843Z,100479.28
2023-01-07T13:49:27.865Z,100479.28
2023-01-07T13:50:36.218Z,100482.63
2023-01-07T13:51:38.426Z,100478.16
2023-01-07T13:52:59.014Z,100473.66
2023-01-07T13:54:02.028Z,100468.34
2023-01-07T13:55:42.253Z,100463.03
2023-01-07T13:56:44.912Z,100474.66
2023-01-07T13:57:47.130Z,100467.63
2023-01-07T13:58:53.246Z,100458.81
2023-01-07T13:59:57.146Z,100460.66
2023-01-07T14:01:04.537Z,100464.13
2023-01-07T14:02:21.076Z,100461.63
2023-01-07T14:03:50.684Z,100459.09
2023-01-07T14:05:05.653Z,100457.44
2023-01-07T14:06:43.341Z,100460.22